Airfield :
LOGIN :

Register | Disclaimer

   EN    FR    IT 

 










Legend :    VFR   Marginal VFR   IFR   Intensive IFR   Very Intensive IFR
Visi :
Ceiling :
>= 8 km
>= 3000ft
5 to 8 km
1000 to 3000 ft
1500m to 5 km
500 to 1000 ft
800 to 1500m
200 to 500 ft
< 800m
< 200 ft
Symbols :   Thunderstorms  Fog  Heavy snow  Heavy precipitations  Wind > 20 kt
SIGMETs :     Misc.  Thunderstorms  Icing  Turbulence  Mountain Waves  Volcanic Ashes






- Airport Elevation : 273 ft


EGXT - RAF Wittering Stamford

CURRENT METAR :
  • 171120Z 31013KT 9999 SCT035 BKN047 10/02 Q1014 RMK BLU

EXPIRED METARs :
  • 171050Z 30011KT 9999 SCT034 09/01 Q1014 RMK BLU
  • 171020Z 31014KT 9999 FEW032 08/00 Q1014 RMK BLU
  • 170950Z 32011KT 9999 SCT034 08/01 Q1014 RMK BLU
  • 170920Z 32015KT 9999 BKN030 08/M00 Q1014 RMK BLU
  • 170850Z 32013KT 9999 SCT028 08/01 Q1014 RMK BLU
  • 170820Z 31012KT 9999 FEW024 SCT200 07/01 Q1014 RMK BLU
  • 170750Z 32011KT 9999 FEW018 SCT200 07/02 Q1015 RMK BLU
  • 170720Z 31012KT 9999 FEW016 06/02 Q1015 RMK BLU

TAF TAF EGXT
Valid from the 17 at 12:00 until the 17 at 18:00 UTC


171023Z 1712/1718 31012KT 9999 SCT035
PROB30
TEMPO 1714/1718 32017G27KT 4000 +SHRA BKN023CB



MET'MAP, your aeronautical weather chart ! - Copyright ORBIFLY December 2007 - Disclaimer

ORBIFLY MET'MAP TEAM :

Programming & Development : Alexandra Zaïnal
Original concept : Baudouin d'Aumeries
Technical & hardware support : Manuel Goepfert
Assistance : Marc-Olivier Méhu




SOURCES & CREDITS :

   NOAA